TimePDT,TemperatureF,Dew PointF,Humidity,Sea Level PressureIn,VisibilityMPH,Wind Direction,Wind SpeedMPH,Gust SpeedMPH,PrecipitationIn,Events,Conditions,WindDirDegrees,DateUTC
12:56 AM,51.1,48.9,92,30.15,10.0,Calm,Calm,-,N/A,,Overcast,0,2013-03-29 07:56:00
1:56 AM,51.1,48.9,92,30.16,10.0,Calm,Calm,-,N/A,,Overcast,0,2013-03-29 08:56:00
2:56 AM,50.0,48.0,93,30.17,10.0,Calm,Calm,-,N/A,,Overcast,0,2013-03-29 09:56:00
3:56 AM,48.9,48.0,97,30.16,10.0,East,4.6,-,0.00,,Overcast,100,2013-03-29 10:56:00
4:56 AM,48.9,48.0,97,30.17,10.0,WSW,3.5,-,N/A,,Scattered Clouds,250,2013-03-29 11:56:00
5:56 AM,48.0,46.9,96,30.17,10.0,Calm,Calm,-,N/A,,Overcast,0,2013-03-29 12:56:00
6:56 AM,48.0,46.9,96,30.18,10.0,Calm,Calm,-,N/A,,Overcast,0,2013-03-29 13:56:00
7:56 AM,50.0,48.9,96,30.19,10.0,Calm,Calm,-,N/A,,Overcast,0,2013-03-29 14:56:00
8:56 AM,52.0,48.0,86,30.19,10.0,Calm,Calm,-,N/A,,Overcast,0,2013-03-29 15:56:00
9:56 AM,55.9,50.0,80,30.19,10.0,Calm,Calm,-,N/A,,Mostly Cloudy,0,2013-03-29 16:56:00
10:25 AM,57.2,50.0,77,30.20,10.0,Calm,Calm,-,N/A,,Overcast,0,2013-03-29 17:25:00
10:32 AM,57.2,50.0,77,30.20,10.0,Variable,3.5,-,N/A,,Overcast,0,2013-03-29 17:32:00
10:43 AM,57.2,50.0,77,30.20,10.0,North,4.6,-,N/A,,Overcast,350,2013-03-29 17:43:00
10:56 AM,57.0,48.9,74,30.20,10.0,North,3.5,-,N/A,,Overcast,360,2013-03-29 17:56:00
11:56 AM,60.1,51.1,72,30.20,10.0,North,5.8,-,N/A,,Mostly Cloudy,350,2013-03-29 18:56:00
12:56 PM,61.0,50.0,67,30.19,10.0,Calm,Calm,-,N/A,,Mostly Cloudy,0,2013-03-29 19:56:00
1:03 PM,60.8,51.8,72,30.19,10.0,Calm,Calm,-,N/A,,Overcast,0,2013-03-29 20:03:00
1:56 PM,64.0,48.9,58,30.18,10.0,NNE,5.8,-,N/A,,Overcast,20,2013-03-29 20:56:00
2:56 PM,66.0,48.9,54,30.16,10.0,NW,3.5,-,N/A,,Partly Cloudy,320,2013-03-29 21:56:00
3:56 PM,66.9,50.0,54,30.15,10.0,Calm,Calm,-,N/A,,Mostly Cloudy,0,2013-03-29 22:56:00
4:56 PM,66.0,48.9,54,30.14,10.0,Calm,Calm,-,N/A,,Scattered Clouds,0,2013-03-29 23:56:00
5:56 PM,66.9,48.9,52,30.13,10.0,North,4.6,-,N/A,,Clear,350,2013-03-30 00:56:00
6:56 PM,64.9,48.9,56,30.12,10.0,NNE,4.6,-,N/A,,Clear,20,2013-03-30 01:56:00
7:56 PM,63.0,48.0,58,30.12,10.0,Calm,Calm,-,N/A,,Clear,0,2013-03-30 02:56:00
8:56 PM,55.9,48.0,75,30.14,10.0,Calm,Calm,-,N/A,,Clear,0,2013-03-30 03:56:00
9:56 PM,53.1,48.0,83,30.16,10.0,Calm,Calm,-,N/A,,Clear,0,2013-03-30 04:56:00
10:56 PM,51.1,46.9,86,30.17,10.0,Calm,Calm,-,N/A,,Clear,0,2013-03-30 05:56:00
11:56 PM,50.0,46.9,89,30.17,10.0,Calm,Calm,-,N/A,,Clear,0,2013-03-30 06:56:00